Time;durP1;ratioP1;P1;durP2;ratioP2;P2;SDS_P1;SDS_P2;PMS_P1;PMS_P2;Temp;Humidity;BMP_temperature;BMP_pressure;BME280_temperature;BME280_humidity;BME280_pressure;Samples;Min_cycle;Max_cycle;Signal;HPM_P1;HPM_P2
2022/10/24 00:02:18;;;;;;;14.70;7.10;;;;;;;;;;5075498;28;20445;-68
2022/10/24 00:04:46;;;;;;;11.60;6.30;;;;;;;;;;5075228;28;20482;-68
2022/10/24 00:07:14;;;;;;;9.63;6.10;;;;;;;;;;5075118;28;20957;-67
2022/10/24 00:09:41;;;;;;;13.27;7.00;;;;;;;;;;5074914;28;20446;-68
2022/10/24 00:12:08;;;;;;;12.30;6.50;;;;;;;;;;5075349;28;20793;-67
2022/10/24 00:14:36;;;;;;;11.17;5.87;;;;;;;;;;5075117;28;20457;-67
2022/10/24 00:17:06;;;;;;;16.27;6.67;;;;;;;;;;5074841;28;20448;-67
2022/10/24 00:19:33;;;;;;;16.10;5.40;;;;;;;;;;5075242;28;20784;-68
2022/10/24 00:22:02;;;;;;;9.30;5.90;;;;;;;;;;5074854;28;20512;-67
2022/10/24 00:24:29;;;;;;;8.73;6.00;;;;;;;;;;5075080;28;20490;-68
2022/10/24 00:26:56;;;;;;;12.73;5.57;;;;;;;;;;5074902;28;20474;-67
2022/10/24 00:29:23;;;;;;;12.67;6.63;;;;;;;;;;5074965;28;20448;-68
2022/10/24 00:31:50;;;;;;;12.13;6.07;;;;;;;;;;5074852;28;20485;-68
2022/10/24 00:34:18;;;;;;;11.20;5.97;;;;;;;;;;5074852;28;20447;-67
2022/10/24 00:36:45;;;;;;;11.63;5.70;;;;;;;;;;5074921;28;20466;-67
2022/10/24 00:39:13;;;;;;;17.00;5.47;;;;;;;;;;5074709;28;20533;-67
2022/10/24 00:41:41;;;;;;;16.87;5.80;;;;;;;;;;5074337;28;20446;-68
2022/10/24 00:44:16;;;;;;;6.80;5.10;;;;;;;;;;5074563;28;20830;-67
2022/10/24 00:46:44;;;;;;;14.07;5.50;;;;;;;;;;5074283;28;20925;-68
2022/10/24 00:49:15;;;;;;;7.27;5.20;;;;;;;;;;5074503;28;20472;-67
2022/10/24 00:51:42;;;;;;;9.17;5.67;;;;;;;;;;5074682;28;20783;-67
2022/10/24 00:54:11;;;;;;;6.37;5.10;;;;;;;;;;5074485;28;20451;-67
2022/10/24 00:56:42;;;;;;;8.17;5.30;;;;;;;;;;5074014;28;20454;-68
2022/10/24 00:59:11;;;;;;;13.30;5.57;;;;;;;;;;5074052;28;20456;-67
2022/10/24 01:01:38;;;;;;;9.80;5.70;;;;;;;;;;5074342;28;20549;-67
2022/10/24 01:04:05;;;;;;;15.57;6.30;;;;;;;;;;5074315;28;20485;-68
2022/10/24 01:06:40;;;;;;;14.17;5.27;;;;;;;;;;5074305;28;20461;-67
2022/10/24 01:09:14;;;;;;;9.00;5.23;;;;;;;;;;5073902;28;20434;-68
2022/10/24 01:11:50;;;;;;;15.83;5.50;;;;;;;;;;5073827;28;20439;-69
2022/10/24 01:14:23;;;;;;;8.63;5.00;;;;;;;;;;5074531;28;20462;-68
2022/10/24 01:16:52;;;;;;;13.10;5.30;;;;;;;;;;5074234;28;20432;-68
2022/10/24 01:19:34;;;;;;;12.73;5.17;;;;;;;;;;5073983;28;20441;-67
2022/10/24 01:22:02;;;;;;;12.80;5.50;;;;;;;;;;5073741;28;20861;-67
2022/10/24 01:24:38;;;;;;;9.87;5.50;;;;;;;;;;5073756;28;20511;-67
2022/10/24 01:27:15;;;;;;;8.67;4.57;;;;;;;;;;5073585;28;20526;-68
2022/10/24 01:29:47;;;;;;;9.33;5.63;;;;;;;;;;5073532;28;20463;-67
2022/10/24 01:32:18;;;;;;;7.67;5.10;;;;;;;;;;5073843;28;20426;-68
2022/10/24 01:34:47;;;;;;;8.97;5.17;;;;;;;;;;5073963;28;20444;-68
2022/10/24 01:37:18;;;;;;;7.17;4.97;;;;;;;;;;5073728;28;20446;-68
2022/10/24 01:39:48;;;;;;;10.10;4.63;;;;;;;;;;5073498;28;20926;-68
2022/10/24 01:42:17;;;;;;;6.30;4.93;;;;;;;;;;5073559;28;20939;-68
2022/10/24 01:44:47;;;;;;;9.93;4.70;;;;;;;;;;5073625;28;20473;-68
2022/10/24 01:47:17;;;;;;;8.60;5.03;;;;;;;;;;5073316;28;20433;-67
2022/10/24 01:49:46;;;;;;;9.43;5.07;;;;;;;;;;5073892;28;20449;-68
2022/10/24 01:52:14;;;;;;;12.17;4.90;;;;;;;;;;5073190;28;20449;-68
2022/10/24 01:54:42;;;;;;;9.27;5.37;;;;;;;;;;5073265;28;20481;-68
2022/10/24 01:57:10;;;;;;;10.93;5.37;;;;;;;;;;5073122;28;20447;-67
2022/10/24 01:59:41;;;;;;;13.90;4.90;;;;;;;;;;5074082;28;20455;-68
2022/10/24 02:02:12;;;;;;;11.33;4.53;;;;;;;;;;5073111;28;20447;-67
2022/10/24 02:04:43;;;;;;;9.13;5.33;;;;;;;;;;5073352;28;20470;-68
2022/10/24 02:07:12;;;;;;;11.00;4.90;;;;;;;;;;5073085;28;20435;-67
2022/10/24 02:09:42;;;;;;;9.50;4.97;;;;;;;;;;5073077;28;20441;-67
2022/10/24 02:12:10;;;;;;;9.53;5.70;;;;;;;;;;5073033;28;20446;-67
2022/10/24 02:14:41;;;;;;;7.90;5.47;;;;;;;;;;5072996;28;20442;-68
2022/10/24 02:17:09;;;;;;;5.43;4.80;;;;;;;;;;5073285;28;20455;-67
2022/10/24 02:19:38;;;;;;;13.37;4.37;;;;;;;;;;5073348;28;20536;-68
2022/10/24 02:22:11;;;;;;;11.30;5.00;;;;;;;;;;5072885;28;20454;-68
2022/10/24 02:24:42;;;;;;;8.33;4.93;;;;;;;;;;5072929;28;20493;-67
2022/10/24 02:27:12;;;;;;;8.90;4.40;;;;;;;;;;5073482;28;20431;-68
2022/10/24 02:29:41;;;;;;;17.67;4.77;;;;;;;;;;5072885;28;20461;-68
2022/10/24 02:32:10;;;;;;;6.40;4.70;;;;;;;;;;5073072;28;20442;-68
2022/10/24 02:34:40;;;;;;;11.07;5.57;;;;;;;;;;5072309;28;20485;-68
2022/10/24 02:37:08;;;;;;;12.47;4.90;;;;;;;;;;5073051;28;20823;-67
2022/10/24 02:39:36;;;;;;;6.97;4.70;;;;;;;;;;5073073;28;20540;-67
2022/10/24 02:42:05;;;;;;;11.47;4.40;;;;;;;;;;5075571;28;20551;-67
2022/10/24 02:44:33;;;;;;;6.73;4.53;;;;;;;;;;5076846;28;20499;-67
2022/10/24 02:47:02;;;;;;;8.80;4.63;;;;;;;;;;5076517;28;20443;-68
2022/10/24 02:49:29;;;;;;;13.90;4.83;;;;;;;;;;5077006;28;20449;-68
2022/10/24 02:51:58;;;;;;;13.90;5.73;;;;;;;;;;5076726;28;20534;-68
2022/10/24 02:54:25;;;;;;;9.17;4.60;;;;;;;;;;5076857;28;20450;-68
2022/10/24 02:56:53;;;;;;;8.53;6.40;;;;;;;;;;5076281;28;20443;-67
2022/10/24 02:59:21;;;;;;;6.77;4.47;;;;;;;;;;5076345;28;20446;-67
2022/10/24 03:01:48;;;;;;;4.43;3.50;;;;;;;;;;5076531;28;20458;-68
2022/10/24 03:04:15;;;;;;;8.60;4.07;;;;;;;;;;5076469;28;20531;-67
2022/10/24 03:06:42;;;;;;;10.13;4.43;;;;;;;;;;5076088;28;20932;-67
2022/10/24 03:09:11;;;;;;;6.60;4.33;;;;;;;;;;5076480;28;20444;-67
2022/10/24 03:11:38;;;;;;;9.77;4.20;;;;;;;;;;5076422;28;20432;-67
2022/10/24 03:14:05;;;;;;;9.60;5.30;;;;;;;;;;5076315;28;20449;-67
2022/10/24 03:16:33;;;;;;;8.70;3.27;;;;;;;;;;5075994;28;20437;-67
2022/10/24 03:19:00;;;;;;;7.90;3.93;;;;;;;;;;5076327;28;20449;-67
2022/10/24 03:21:27;;;;;;;11.60;4.33;;;;;;;;;;5075989;28;20503;-68
2022/10/24 03:23:54;;;;;;;7.30;4.07;;;;;;;;;;5076161;28;20443;-67
2022/10/24 03:26:23;;;;;;;6.80;4.50;;;;;;;;;;5075721;28;20492;-68
2022/10/24 03:28:50;;;;;;;7.27;3.87;;;;;;;;;;5075747;28;20788;-68
2022/10/24 03:31:17;;;;;;;6.67;4.30;;;;;;;;;;5076073;28;20454;-67
2022/10/24 03:33:45;;;;;;;6.17;3.87;;;;;;;;;;5075974;28;20443;-68
2022/10/24 03:36:12;;;;;;;6.47;4.10;;;;;;;;;;5076183;28;20447;-68
2022/10/24 03:38:39;;;;;;;9.80;4.23;;;;;;;;;;5075565;28;20812;-67
2022/10/24 03:41:06;;;;;;;6.47;3.33;;;;;;;;;;5075875;28;20534;-67
2022/10/24 03:43:35;;;;;;;6.63;3.30;;;;;;;;;;5075991;28;20443;-68
2022/10/24 03:46:02;;;;;;;8.47;3.60;;;;;;;;;;5076415;28;20572;-67
2022/10/24 03:48:29;;;;;;;8.40;4.03;;;;;;;;;;5075945;28;20454;-68
2022/10/24 03:50:57;;;;;;;7.27;3.20;;;;;;;;;;5075440;28;20454;-68
2022/10/24 03:53:24;;;;;;;5.80;3.30;;;;;;;;;;5074363;28;20450;-68
2022/10/24 03:55:51;;;;;;;17.50;4.10;;;;;;;;;;5074929;28;20453;-68
2022/10/24 03:58:18;;;;;;;7.40;3.37;;;;;;;;;;5074857;28;20451;-68
2022/10/24 04:00:47;;;;;;;5.20;3.30;;;;;;;;;;5074869;28;20504;-68
2022/10/24 04:03:14;;;;;;;13.03;3.80;;;;;;;;;;5075471;28;20455;-68
2022/10/24 04:05:41;;;;;;;8.10;3.33;;;;;;;;;;5074856;28;20490;-68
2022/10/24 04:08:08;;;;;;;11.03;3.10;;;;;;;;;;5074580;28;20961;-68
2022/10/24 04:10:35;;;;;;;9.70;4.00;;;;;;;;;;5075195;28;20445;-67
2022/10/24 04:13:03;;;;;;;3.80;2.60;;;;;;;;;;5074771;28;20459;-67
2022/10/24 04:15:30;;;;;;;6.30;2.90;;;;;;;;;;5074433;28;20451;-67
2022/10/24 04:17:58;;;;;;;4.50;2.80;;;;;;;;;;5074836;28;20446;-67
2022/10/24 04:20:25;;;;;;;6.17;3.33;;;;;;;;;;5074420;28;20481;-67
2022/10/24 04:22:53;;;;;;;8.67;3.90;;;;;;;;;;5074334;28;20940;-67
2022/10/24 04:25:20;;;;;;;4.00;3.03;;;;;;;;;;5074166;28;20482;-68
2022/10/24 04:27:47;;;;;;;5.03;2.73;;;;;;;;;;5074156;28;20520;-68
2022/10/24 04:30:15;;;;;;;3.83;2.33;;;;;;;;;;5074711;28;20450;-68
2022/10/24 04:32:42;;;;;;;7.80;2.87;;;;;;;;;;5074910;28;20479;-68
2022/10/24 04:35:11;;;;;;;6.03;3.77;;;;;;;;;;5074441;28;20965;-68
2022/10/24 04:37:38;;;;;;;6.10;3.10;;;;;;;;;;5074666;28;20474;-68
2022/10/24 04:40:06;;;;;;;9.73;3.20;;;;;;;;;;5074651;28;20443;-68
2022/10/24 04:42:33;;;;;;;11.40;3.77;;;;;;;;;;5074409;28;20457;-67
2022/10/24 04:45:00;;;;;;;3.60;2.73;;;;;;;;;;5074499;28;20565;-68
2022/10/24 04:47:28;;;;;;;3.67;3.20;;;;;;;;;;5074932;28;20450;-67
2022/10/24 04:49:55;;;;;;;9.97;2.77;;;;;;;;;;5073786;28;20534;-67
2022/10/24 04:52:23;;;;;;;6.07;3.10;;;;;;;;;;5074258;28;20452;-68
2022/10/24 04:54:51;;;;;;;9.13;3.20;;;;;;;;;;5074149;28;20517;-67
2022/10/24 04:57:18;;;;;;;5.37;2.90;;;;;;;;;;5074473;28;20626;-67
2022/10/24 04:59:45;;;;;;;8.53;2.97;;;;;;;;;;5073220;28;20971;-67
2022/10/24 05:02:12;;;;;;;10.77;3.20;;;;;;;;;;5073794;28;20939;-67
2022/10/24 05:04:39;;;;;;;6.30;2.80;;;;;;;;;;5072562;28;20539;-68
2022/10/24 05:07:07;;;;;;;4.50;2.93;;;;;;;;;;5074172;28;20557;-67
2022/10/24 05:09:35;;;;;;;8.30;3.20;;;;;;;;;;5073585;28;20961;-68
2022/10/24 05:12:02;;;;;;;6.20;3.00;;;;;;;;;;5073926;28;20443;-67
2022/10/24 05:14:30;;;;;;;8.73;3.27;;;;;;;;;;5073749;28;20936;-67
2022/10/24 05:16:57;;;;;;;11.13;3.43;;;;;;;;;;5074094;28;20458;-66
2022/10/24 05:19:24;;;;;;;10.53;5.50;;;;;;;;;;5073673;28;20529;-68
2022/10/24 05:21:51;;;;;;;8.90;3.13;;;;;;;;;;5074196;28;20439;-67
2022/10/24 05:24:18;;;;;;;8.77;3.00;;;;;;;;;;5073412;28;20479;-67
2022/10/24 05:26:47;;;;;;;9.77;3.97;;;;;;;;;;5074150;28;20914;-66
2022/10/24 05:29:14;;;;;;;5.60;3.40;;;;;;;;;;5073405;28;20443;-67
2022/10/24 05:31:41;;;;;;;7.63;3.13;;;;;;;;;;5073802;28;20451;-67
2022/10/24 05:34:08;;;;;;;4.93;2.90;;;;;;;;;;5073678;28;20452;-67
2022/10/24 05:36:36;;;;;;;9.80;3.00;;;;;;;;;;5074346;28;20463;-67
2022/10/24 05:39:03;;;;;;;5.60;2.70;;;;;;;;;;5073855;28;20473;-68
2022/10/24 05:41:31;;;;;;;14.07;3.73;;;;;;;;;;5073396;28;20446;-67
2022/10/24 05:44:00;;;;;;;5.77;2.87;;;;;;;;;;5073576;28;20453;-67
2022/10/24 05:46:27;;;;;;;4.70;2.60;;;;;;;;;;5073699;28;20575;-67
2022/10/24 05:48:54;;;;;;;8.00;5.97;;;;;;;;;;5073300;28;20451;-67
2022/10/24 05:51:21;;;;;;;10.97;5.47;;;;;;;;;;5073198;28;20447;-66
2022/10/24 05:53:48;;;;;;;9.67;2.77;;;;;;;;;;5073532;28;20459;-66
2022/10/24 05:56:16;;;;;;;6.47;3.43;;;;;;;;;;5073465;28;20444;-66
2022/10/24 05:58:43;;;;;;;7.10;2.83;;;;;;;;;;5073127;28;20447;-67
2022/10/24 06:01:11;;;;;;;12.07;4.23;;;;;;;;;;5073029;28;20945;-67
2022/10/24 06:03:39;;;;;;;6.00;2.87;;;;;;;;;;5073684;28;20451;-67
2022/10/24 06:06:06;;;;;;;7.80;3.47;;;;;;;;;;5073481;28;20475;-67
2022/10/24 06:08:34;;;;;;;9.60;3.73;;;;;;;;;;5073413;28;20466;-67
2022/10/24 06:11:01;;;;;;;6.97;2.87;;;;;;;;;;5073208;28;20459;-67
2022/10/24 06:13:29;;;;;;;6.83;3.33;;;;;;;;;;5073451;28;20451;-67
2022/10/24 06:15:56;;;;;;;6.20;3.20;;;;;;;;;;5074404;28;20473;-68
2022/10/24 06:18:25;;;;;;;4.70;3.40;;;;;;;;;;5077602;28;20444;-67
2022/10/24 06:20:52;;;;;;;8.10;2.90;;;;;;;;;;5077361;28;20439;-67
2022/10/24 06:23:19;;;;;;;6.53;2.97;;;;;;;;;;5077777;28;20459;-67
2022/10/24 06:25:47;;;;;;;8.30;2.80;;;;;;;;;;5077384;28;20586;-67
2022/10/24 06:28:14;;;;;;;3.93;2.20;;;;;;;;;;5077575;28;20530;-67
2022/10/24 06:30:42;;;;;;;12.03;3.60;;;;;;;;;;5077135;28;20447;-67
2022/10/24 06:33:10;;;;;;;3.87;2.53;;;;;;;;;;5076842;28;20451;-67
2022/10/24 06:35:38;;;;;;;5.60;2.40;;;;;;;;;;5076924;28;20459;-67
2022/10/24 06:38:05;;;;;;;5.73;3.00;;;;;;;;;;5077415;28;20778;-67
2022/10/24 06:40:33;;;;;;;5.10;2.83;;;;;;;;;;5076986;28;20443;-66
2022/10/24 06:43:00;;;;;;;7.50;3.20;;;;;;;;;;5077568;28;20799;-66
2022/10/24 06:45:27;;;;;;;5.07;3.37;;;;;;;;;;5076738;28;20440;-66
2022/10/24 06:47:55;;;;;;;5.77;2.00;;;;;;;;;;5076869;28;20533;-67
2022/10/24 06:50:22;;;;;;;12.40;3.33;;;;;;;;;;5076984;28;20447;-66
2022/10/24 06:52:50;;;;;;;3.40;2.40;;;;;;;;;;5076944;28;20449;-67
2022/10/24 06:55:18;;;;;;;4.57;2.90;;;;;;;;;;5076708;28;20799;-67
2022/10/24 06:57:45;;;;;;;6.40;3.20;;;;;;;;;;5077307;28;20446;-67
2022/10/24 07:00:13;;;;;;;6.60;3.20;;;;;;;;;;5076104;28;20451;-67
2022/10/24 07:02:40;;;;;;;4.10;2.90;;;;;;;;;;5076592;28;20474;-66
2022/10/24 07:05:11;;;;;;;5.10;3.40;;;;;;;;;;5076600;28;20815;-67
2022/10/24 07:07:39;;;;;;;5.37;3.37;;;;;;;;;;5077110;28;20927;-67
2022/10/24 07:10:09;;;;;;;5.10;2.83;;;;;;;;;;5077049;28;20442;-67
2022/10/24 07:12:36;;;;;;;7.30;2.50;;;;;;;;;;5076457;28;20446;-67
2022/10/24 07:15:03;;;;;;;6.53;2.67;;;;;;;;;;5076094;28;20449;-67
2022/10/24 07:17:30;;;;;;;4.50;2.13;;;;;;;;;;5076289;28;20505;-66
2022/10/24 07:19:58;;;;;;;5.47;2.80;;;;;;;;;;5076653;28;20454;-66
2022/10/24 07:22:25;;;;;;;11.00;2.10;;;;;;;;;;5076177;28;20440;-67
2022/10/24 07:24:53;;;;;;;7.60;2.67;;;;;;;;;;5076553;28;20565;-66
2022/10/24 07:27:22;;;;;;;5.63;2.80;;;;;;;;;;5075310;28;20483;-67
2022/10/24 07:29:50;;;;;;;7.73;2.37;;;;;;;;;;5076016;28;20446;-67
2022/10/24 07:32:17;;;;;;;3.67;2.63;;;;;;;;;;5075979;28;20450;-67
2022/10/24 07:34:46;;;;;;;8.33;2.87;;;;;;;;;;5076382;28;20974;-67
2022/10/24 07:37:13;;;;;;;4.73;2.60;;;;;;;;;;5075619;28;20523;-67
2022/10/24 07:39:41;;;;;;;8.67;2.93;;;;;;;;;;5075938;28;20452;-67
2022/10/24 07:42:08;;;;;;;4.43;2.47;;;;;;;;;;5075535;28;20967;-67
2022/10/24 07:44:36;;;;;;;5.50;2.53;;;;;;;;;;5075926;28;20452;-67
2022/10/24 07:47:05;;;;;;;4.67;2.87;;;;;;;;;;5075351;28;20487;-66
2022/10/24 07:49:32;;;;;;;10.23;2.80;;;;;;;;;;5075510;28;20547;-66
2022/10/24 07:52:00;;;;;;;11.23;2.60;;;;;;;;;;5075827;28;20452;-67
2022/10/24 07:54:27;;;;;;;5.90;4.00;;;;;;;;;;5075935;28;20447;-66
2022/10/24 07:56:55;;;;;;;7.13;2.97;;;;;;;;;;5075165;28;20513;-67
2022/10/24 07:59:22;;;;;;;7.63;2.93;;;;;;;;;;5075496;28;20446;-66
2022/10/24 08:01:51;;;;;;;4.50;2.30;;;;;;;;;;5075407;28;20447;-67
2022/10/24 08:04:18;;;;;;;7.90;2.47;;;;;;;;;;5075215;28;20445;-67
2022/10/24 08:06:45;;;;;;;4.93;2.43;;;;;;;;;;5075582;28;20826;-67
2022/10/24 08:09:12;;;;;;;5.97;2.30;;;;;;;;;;5075145;28;20945;-67
2022/10/24 08:11:39;;;;;;;5.20;2.20;;;;;;;;;;5074593;28;20446;-67
2022/10/24 08:14:07;;;;;;;7.50;2.43;;;;;;;;;;5075288;28;20440;-68
2022/10/24 08:16:34;;;;;;;3.17;2.17;;;;;;;;;;5074706;28;20451;-67
2022/10/24 08:19:02;;;;;;;4.67;2.57;;;;;;;;;;5074888;28;20965;-67
2022/10/24 08:21:30;;;;;;;3.10;1.70;;;;;;;;;;5074942;28;20446;-67
2022/10/24 08:23:58;;;;;;;3.00;2.23;;;;;;;;;;5075149;28;20436;-67
2022/10/24 08:26:25;;;;;;;8.90;2.13;;;;;;;;;;5074835;28;20487;-67
2022/10/24 08:28:54;;;;;;;7.27;2.23;;;;;;;;;;5074967;28;20536;-68
2022/10/24 08:31:22;;;;;;;4.50;2.10;;;;;;;;;;5074955;28;20447;-68
2022/10/24 08:33:49;;;;;;;5.23;2.77;;;;;;;;;;5074498;28;20445;-67
2022/10/24 08:36:21;;;;;;;5.80;3.17;;;;;;;;;;5074405;28;20965;-67
2022/10/24 08:38:48;;;;;;;9.67;2.47;;;;;;;;;;5073900;28;20905;-67
2022/10/24 08:41:23;;;;;;;11.90;2.23;;;;;;;;;;5074440;28;20452;-67
2022/10/24 08:43:50;;;;;;;4.87;2.70;;;;;;;;;;5075063;28;20434;-67
2022/10/24 08:46:24;;;;;;;4.07;2.00;;;;;;;;;;5074164;28;21000;-66
2022/10/24 08:48:54;;;;;;;4.53;2.30;;;;;;;;;;5074266;28;20441;-66
2022/10/24 08:51:27;;;;;;;6.00;2.57;;;;;;;;;;5074243;28;20522;-67
2022/10/24 08:53:56;;;;;;;4.67;2.00;;;;;;;;;;5074432;28;20471;-67
2022/10/24 08:56:23;;;;;;;5.80;1.97;;;;;;;;;;5074570;28;20499;-67
2022/10/24 08:58:51;;;;;;;9.67;2.03;;;;;;;;;;5073953;28;20443;-67
2022/10/24 09:01:22;;;;;;;6.03;1.90;;;;;;;;;;5074275;28;20504;-67
2022/10/24 09:03:51;;;;;;;6.77;2.10;;;;;;;;;;5074242;28;20435;-66
2022/10/24 09:06:19;;;;;;;8.17;3.20;;;;;;;;;;5074004;28;20579;-66
2022/10/24 09:08:51;;;;;;;4.87;2.20;;;;;;;;;;5073856;28;20912;-67
2022/10/24 09:11:23;;;;;;;3.43;1.77;;;;;;;;;;5074457;28;20444;-67
2022/10/24 09:13:51;;;;;;;3.47;1.80;;;;;;;;;;5073808;28;20439;-67
2022/10/24 09:16:21;;;;;;;4.80;1.57;;;;;;;;;;5073772;28;20452;-68
2022/10/24 09:18:49;;;;;;;6.57;2.33;;;;;;;;;;5073642;28;20455;-67
2022/10/24 09:21:16;;;;;;;2.70;1.53;;;;;;;;;;5073728;28;20454;-67
2022/10/24 09:23:44;;;;;;;6.70;1.90;;;;;;;;;;5073578;28;20440;-67
2022/10/24 09:26:16;;;;;;;3.90;1.73;;;;;;;;;;5074297;28;20478;-67
2022/10/24 09:28:44;;;;;;;7.20;2.10;;;;;;;;;;5073953;28;20779;-67
2022/10/24 09:31:15;;;;;;;8.30;2.73;;;;;;;;;;5073447;28;20562;-67
2022/10/24 09:33:43;;;;;;;4.30;1.83;;;;;;;;;;5073448;28;20430;-67
2022/10/24 09:36:12;;;;;;;4.73;1.87;;;;;;;;;;5074028;28;20451;-67
2022/10/24 09:38:40;;;;;;;8.03;3.00;;;;;;;;;;5073586;28;20460;-67
2022/10/24 09:41:08;;;;;;;3.83;1.60;;;;;;;;;;5074119;28;20437;-67
2022/10/24 09:43:39;;;;;;;6.40;2.20;;;;;;;;;;5073548;28;20439;-67
2022/10/24 09:46:08;;;;;;;1.90;1.57;;;;;;;;;;5074408;28;20442;-66
2022/10/24 09:48:38;;;;;;;7.30;2.90;;;;;;;;;;5073479;28;20484;-67
2022/10/24 09:51:07;;;;;;;5.07;1.97;;;;;;;;;;5073704;28;20526;-66
2022/10/24 09:53:35;;;;;;;8.10;2.30;;;;;;;;;;5073097;28;20454;-67
2022/10/24 09:56:08;;;;;;;4.33;2.20;;;;;;;;;;5073548;28;20441;-68
2022/10/24 09:58:35;;;;;;;8.87;1.80;;;;;;;;;;5073100;28;20435;-67
2022/10/24 10:01:06;;;;;;;4.63;1.83;;;;;;;;;;5073139;28;20447;-67
2022/10/24 10:03:33;;;;;;;7.03;2.00;;;;;;;;;;5073798;28;20431;-67
2022/10/24 10:06:03;;;;;;;5.77;1.90;;;;;;;;;;5073400;28;20463;-67
2022/10/24 10:08:31;;;;;;;9.80;2.43;;;;;;;;;;5072889;28;20485;-66
2022/10/24 10:11:00;;;;;;;10.47;2.20;;;;;;;;;;5073401;28;20917;-67
2022/10/24 10:13:28;;;;;;;10.37;2.53;;;;;;;;;;5073246;28;20455;-67
2022/10/24 10:15:56;;;;;;;6.87;2.00;;;;;;;;;;5073757;28;20451;-67
2022/10/24 10:18:26;;;;;;;6.30;2.40;;;;;;;;;;5073752;28;20801;-67
2022/10/24 10:21:18;;;;;;;3.90;1.77;;;;;;;;;;5072911;28;20450;-67
2022/10/24 10:23:45;;;;;;;4.67;2.17;;;;;;;;;;5057744;28;20951;-67
2022/10/24 10:26:23;;;;;;;8.63;2.20;;;;;;;;;;5073445;28;20488;-67
2022/10/24 10:28:53;;;;;;;6.07;2.53;;;;;;;;;;5072790;28;20431;-66
2022/10/24 10:31:21;;;;;;;6.57;1.90;;;;;;;;;;5072682;28;20934;-66
2022/10/24 10:33:54;;;;;;;9.33;2.33;;;;;;;;;;5072718;28;20445;-67
2022/10/24 10:36:25;;;;;;;10.27;2.50;;;;;;;;;;5073476;28;20452;-67
2022/10/24 10:38:54;;;;;;;6.60;1.90;;;;;;;;;;5072787;28;20434;-66
2022/10/24 10:41:39;;;;;;;3.40;1.80;;;;;;;;;;5073322;28;20435;-67
2022/10/24 10:44:16;;;;;;;10.40;2.63;;;;;;;;;;5072979;28;20436;-66
2022/10/24 10:46:49;;;;;;;5.93;2.37;;;;;;;;;;5073026;28;20447;-66
2022/10/24 10:49:22;;;;;;;5.53;2.10;;;;;;;;;;5072893;28;20908;-67
2022/10/24 10:51:51;;;;;;;9.20;2.57;;;;;;;;;;5073740;28;20519;-67
2022/10/24 10:54:30;;;;;;;6.70;2.70;;;;;;;;;;5072975;28;20457;-67
2022/10/24 10:57:00;;;;;;;11.17;2.87;;;;;;;;;;5073012;28;20445;-66
2022/10/24 10:59:37;;;;;;;6.70;2.10;;;;;;;;;;5072556;28;21011;-66
2022/10/24 11:02:11;;;;;;;6.77;2.00;;;;;;;;;;5074055;28;20455;-67
2022/10/24 11:04:44;;;;;;;8.60;2.33;;;;;;;;;;5076469;28;20431;-66
2022/10/24 11:07:13;;;;;;;5.77;1.80;;;;;;;;;;5077060;28;20919;-66
2022/10/24 11:09:44;;;;;;;7.63;2.37;;;;;;;;;;5076337;28;20443;-67
2022/10/24 11:12:15;;;;;;;5.40;2.20;;;;;;;;;;5076221;28;20428;-67
2022/10/24 11:14:43;;;;;;;7.40;2.20;;;;;;;;;;5076633;28;20454;-66
2022/10/24 11:17:14;;;;;;;5.23;1.67;;;;;;;;;;5076375;28;20464;-67
2022/10/24 11:19:45;;;;;;;9.10;2.60;;;;;;;;;;5076397;28;20428;-66
2022/10/24 11:22:16;;;;;;;3.20;1.73;;;;;;;;;;5076655;28;20440;-67
2022/10/24 11:24:45;;;;;;;6.27;2.00;;;;;;;;;;5076409;28;20506;-67
2022/10/24 11:27:14;;;;;;;4.67;1.80;;;;;;;;;;5075705;28;20476;-66
2022/10/24 11:29:44;;;;;;;12.30;2.43;;;;;;;;;;5075924;28;20439;-67
2022/10/24 11:32:17;;;;;;;7.50;2.10;;;;;;;;;;5075999;28;20824;-67
2022/10/24 11:34:53;;;;;;;8.10;2.13;;;;;;;;;;5076223;28;20432;-67
2022/10/24 11:37:25;;;;;;;4.03;2.40;;;;;;;;;;5076247;28;20436;-66
2022/10/24 11:39:55;;;;;;;9.40;2.60;;;;;;;;;;5076029;28;20465;-67
2022/10/24 11:42:27;;;;;;;7.83;2.33;;;;;;;;;;5075425;28;20534;-67
2022/10/24 11:44:56;;;;;;;5.20;2.50;;;;;;;;;;5075744;28;20443;-67
2022/10/24 11:47:41;;;;;;;9.60;4.17;;;;;;;;;;5075769;28;20483;-67
2022/10/24 11:50:14;;;;;;;5.13;2.50;;;;;;;;;;5075854;28;20531;-67
2022/10/24 11:52:43;;;;;;;5.57;2.40;;;;;;;;;;5076120;28;20774;-67
2022/10/24 11:55:15;;;;;;;15.03;2.60;;;;;;;;;;5075396;28;20454;-67
2022/10/24 11:57:44;;;;;;;12.00;2.47;;;;;;;;;;5075632;28;20443;-67
2022/10/24 12:00:17;;;;;;;9.50;2.57;;;;;;;;;;5075611;28;20497;-67
2022/10/24 12:02:54;;;;;;;10.23;2.30;;;;;;;;;;5075595;28;20432;-67
2022/10/24 12:05:33;;;;;;;10.03;2.37;;;;;;;;;;5075470;28;20458;-66
2022/10/24 12:08:27;;;;;;;6.87;2.80;;;;;;;;;;5075953;28;20493;-66
2022/10/24 12:11:28;;;;;;;11.03;2.60;;;;;;;;;;5075006;28;20925;-66
2022/10/24 12:14:02;;;;;;;5.13;2.30;;;;;;;;;;5012384;28;20820;-66
2022/10/24 12:16:35;;;;;;;9.43;2.83;;;;;;;;;;5013234;28;20445;-67
2022/10/24 12:19:03;;;;;;;11.37;2.60;;;;;;;;;;5046544;28;20465;-66
2022/10/24 12:21:38;;;;;;;5.30;1.90;;;;;;;;;;5074832;28;20447;-66
2022/10/24 12:24:06;;;;;;;8.47;2.17;;;;;;;;;;5074594;28;20524;-66
2022/10/24 12:26:35;;;;;;;7.37;2.50;;;;;;;;;;5075050;28;20433;-67
2022/10/24 12:29:03;;;;;;;4.27;1.80;;;;;;;;;;5075040;28;20475;-66
2022/10/24 12:31:31;;;;;;;10.27;2.30;;;;;;;;;;5074507;28;20454;-66
2022/10/24 12:34:18;;;;;;;9.13;2.10;;;;;;;;;;5074866;28;20466;-66
2022/10/24 12:37:03;;;;;;;8.50;2.57;;;;;;;;;;5074907;28;20459;-67
2022/10/24 12:39:31;;;;;;;6.10;2.73;;;;;;;;;;5075190;28;20439;-67
2022/10/24 12:41:58;;;;;;;5.23;2.33;;;;;;;;;;5074742;28;20443;-66
2022/10/24 12:44:50;;;;;;;5.63;2.30;;;;;;;;;;5074891;28;20440;-68
2022/10/24 12:47:31;;;;;;;6.70;2.20;;;;;;;;;;5074290;28;20429;-66
2022/10/24 12:49:59;;;;;;;10.63;2.43;;;;;;;;;;5074477;28;20469;-68
2022/10/24 12:52:53;;;;;;;5.80;2.60;;;;;;;;;;5074465;28;20444;-68
2022/10/24 12:55:52;;;;;;;10.63;2.60;;;;;;;;;;5039073;28;20916;-66
2022/10/24 12:58:23;;;;;;;9.07;2.10;;;;;;;;;;5074440;28;20449;-65
2022/10/24 13:00:54;;;;;;;16.03;3.60;;;;;;;;;;5074476;28;20519;-66
2022/10/24 13:03:23;;;;;;;3.57;2.00;;;;;;;;;;5074391;28;20463;-66
2022/10/24 13:05:57;;;;;;;5.60;2.23;;;;;;;;;;5073885;28;20843;-66
2022/10/24 13:08:38;;;;;;;10.60;3.00;;;;;;;;;;5074385;28;20471;-66
2022/10/24 13:11:11;;;;;;;14.37;2.90;;;;;;;;;;5074153;28;20432;-65
2022/10/24 13:14:05;;;;;;;6.83;2.70;;;;;;;;;;5074702;28;20433;-65
2022/10/24 13:16:37;;;;;;;6.07;1.87;;;;;;;;;;5037937;28;20794;-66
2022/10/24 13:19:09;;;;;;;9.63;2.60;;;;;;;;;;5073171;28;20454;-66
2022/10/24 13:21:44;;;;;;;4.67;2.00;;;;;;;;;;5073101;28;20451;-65
2022/10/24 13:24:13;;;;;;;9.87;2.90;;;;;;;;;;5073259;28;20431;-65
2022/10/24 13:26:43;;;;;;;6.87;2.60;;;;;;;;;;5073386;28;20443;-66
2022/10/24 13:29:15;;;;;;;10.57;2.73;;;;;;;;;;5073416;28;20486;-66
2022/10/24 13:31:43;;;;;;;11.43;2.53;;;;;;;;;;5073257;28;20456;-66
2022/10/24 13:34:16;;;;;;;9.40;3.00;;;;;;;;;;5073276;28;20446;-66
2022/10/24 13:36:43;;;;;;;6.33;2.30;;;;;;;;;;5073462;28;20477;-66
2022/10/24 13:39:12;;;;;;;8.57;3.00;;;;;;;;;;5073336;28;20452;-66
2022/10/24 13:41:40;;;;;;;6.80;2.57;;;;;;;;;;5072834;28;20450;-66
2022/10/24 13:44:15;;;;;;;7.73;2.60;;;;;;;;;;5073186;28;20447;-66
2022/10/24 13:46:44;;;;;;;9.37;4.40;;;;;;;;;;5072687;28;20437;-66
2022/10/24 13:49:16;;;;;;;10.80;3.40;;;;;;;;;;5073042;28;20479;-66
2022/10/24 13:51:45;;;;;;;7.47;3.50;;;;;;;;;;5073049;28;20430;-66
2022/10/24 13:54:17;;;;;;;9.80;2.60;;;;;;;;;;5073176;28;20441;-65
2022/10/24 13:56:45;;;;;;;4.77;2.13;;;;;;;;;;5072987;28;20437;-66
2022/10/24 13:59:31;;;;;;;6.63;2.80;;;;;;;;;;5073258;28;20448;-70
2022/10/24 14:01:59;;;;;;;9.37;2.80;;;;;;;;;;5073337;28;20469;-67
2022/10/24 14:04:26;;;;;;;11.40;2.93;;;;;;;;;;5073182;28;20448;-68
2022/10/24 14:06:54;;;;;;;10.93;2.33;;;;;;;;;;5073511;28;20443;-67
2022/10/24 14:09:21;;;;;;;16.13;2.70;;;;;;;;;;5073450;28;20568;-68
2022/10/24 14:11:49;;;;;;;6.53;2.23;;;;;;;;;;5072720;28;20466;-67
2022/10/24 14:14:25;;;;;;;8.47;2.30;;;;;;;;;;5072514;28;20458;-68
2022/10/24 14:17:06;;;;;;;7.33;2.70;;;;;;;;;;5072895;28;20448;-68
2022/10/24 14:19:35;;;;;;;10.00;2.67;;;;;;;;;;5073092;28;20439;-68
2022/10/24 14:22:02;;;;;;;6.30;2.03;;;;;;;;;;5072471;28;20446;-67
2022/10/24 14:24:31;;;;;;;14.53;2.60;;;;;;;;;;5073080;28;21001;-68
2022/10/24 14:26:58;;;;;;;8.00;2.40;;;;;;;;;;5073140;28;20884;-68
2022/10/24 14:29:27;;;;;;;5.93;2.30;;;;;;;;;;5072731;28;20479;-67
2022/10/24 14:31:55;;;;;;;13.53;2.33;;;;;;;;;;5072736;28;20445;-68
2022/10/24 14:34:24;;;;;;;8.40;2.17;;;;;;;;;;5072930;28;20950;-68
2022/10/24 14:36:52;;;;;;;6.83;2.57;;;;;;;;;;5073319;28;20453;-68
2022/10/24 14:39:22;;;;;;;9.40;3.00;;;;;;;;;;5077517;28;20450;-67
2022/10/24 14:41:50;;;;;;;10.23;2.43;;;;;;;;;;5077228;28;20754;-68
2022/10/24 14:44:18;;;;;;;6.03;2.33;;;;;;;;;;5076784;28;20530;-67
2022/10/24 14:46:45;;;;;;;9.33;3.27;;;;;;;;;;5076566;28;20442;-67
2022/10/24 14:49:32;;;;;;;10.23;2.83;;;;;;;;;;5076644;28;20783;-68
2022/10/24 14:52:00;;;;;;;8.00;2.77;;;;;;;;;;5076462;28;20428;-67
2022/10/24 14:54:30;;;;;;;7.53;2.33;;;;;;;;;;5077347;28;20446;-68
2022/10/24 14:56:59;;;;;;;6.50;2.50;;;;;;;;;;5076608;28;20915;-68